createdAt,value
2019-01-21T00:01:34.186Z,-1.70
2019-01-21T00:06:55.483Z,-1.80
2019-01-21T00:12:07.483Z,-1.70
2019-01-21T00:17:28.639Z,-1.80
2019-01-21T00:22:49.696Z,-1.80
2019-01-21T00:28:10.290Z,-1.80
2019-01-21T00:33:31.633Z,-1.80
2019-01-21T00:38:34.542Z,-1.70
2019-01-21T00:43:41.263Z,-1.70
2019-01-21T00:49:02.530Z,-1.70
2019-01-21T00:54:08.495Z,-1.80
2019-01-21T00:59:14.657Z,-1.80
2019-01-21T01:04:26.400Z,-1.80
2019-01-21T01:09:47.580Z,-1.80
2019-01-21T01:14:53.775Z,-1.90
2019-01-21T01:20:00.384Z,-1.90
2019-01-21T01:25:05.274Z,-1.80
2019-01-21T01:30:18.774Z,-1.80
2019-01-21T01:35:24.479Z,-1.80
2019-01-21T01:40:36.791Z,-2.00
2019-01-21T01:45:44.591Z,-2.20
2019-01-21T01:50:48.019Z,-2.30
2019-01-21T01:55:54.754Z,-2.40
2019-01-21T02:01:06.907Z,-2.60
2019-01-21T02:06:14.913Z,-2.60
2019-01-21T02:11:22.611Z,-2.80
2019-01-21T02:16:31.383Z,-2.90
2019-01-21T02:21:40.303Z,-3.10
2019-01-21T02:27:08.770Z,-3.30
2019-01-21T02:32:37.264Z,-3.80
2019-01-21T02:38:40.238Z,-4.20
2019-01-21T02:44:36.635Z,-4.60
2019-01-21T02:50:11.607Z,-5.10
2019-01-21T02:56:04.103Z,-5.50
2019-01-21T03:01:56.152Z,-5.90
2019-01-21T03:07:24.920Z,-6.30
2019-01-21T03:12:50.146Z,-6.60
2019-01-21T03:18:36.100Z,-6.80
2019-01-21T03:24:30.810Z,-7.10
2019-01-21T03:30:22.792Z,-7.30
2019-01-21T03:36:04.418Z,-7.50
2019-01-21T03:41:25.584Z,-7.60
2019-01-21T03:46:57.781Z,-7.70
2019-01-21T03:52:41.270Z,-7.80
2019-01-21T03:58:31.765Z,-7.90
2019-01-21T04:04:21.625Z,-7.90
2019-01-21T04:10:24.756Z,-8.10
2019-01-21T04:16:19.045Z,-8.00
2019-01-21T04:21:59.881Z,-8.10
2019-01-21T04:28:27.138Z,-8.20
2019-01-21T04:33:57.062Z,-8.30
2019-01-21T04:39:29.301Z,-8.30
2019-01-21T04:45:12.821Z,-8.30
2019-01-21T04:58:03.024Z,-8.50
2019-01-21T05:03:25.971Z,-8.50
2019-01-21T05:09:04.844Z,-8.50
2019-01-21T05:15:06.119Z,-8.50
2019-01-21T05:21:13.623Z,-8.60
2019-01-21T05:26:42.361Z,-8.70
2019-01-21T05:32:17.975Z,-8.70
2019-01-21T05:38:05.977Z,-8.70
2019-01-21T06:02:31.255Z,-8.90
2019-01-21T06:08:32.747Z,-8.90
2019-01-21T06:14:39.437Z,-8.80
2019-01-21T06:20:32.778Z,-8.80
2019-01-21T06:26:13.575Z,-8.80
2019-01-21T06:31:45.135Z,-8.70
2019-01-21T06:37:11.705Z,-8.70
2019-01-21T06:43:03.128Z,-8.70
2019-01-21T06:49:04.646Z,-8.70
2019-01-21T06:54:31.368Z,-8.60
2019-01-21T07:00:02.666Z,-8.40
2019-01-21T07:06:10.634Z,-8.20
2019-01-21T07:11:50.775Z,-8.30
2019-01-21T07:17:30.739Z,-8.30
2019-01-21T07:23:14.983Z,-8.20
2019-01-21T07:29:08.051Z,-8.20
2019-01-21T07:34:46.061Z,-8.10
2019-01-21T07:40:14.959Z,-8.00
2019-01-21T07:45:51.945Z,-7.80
2019-01-21T07:51:51.115Z,-7.70
2019-01-21T07:57:18.371Z,-7.50
2019-01-21T08:02:48.195Z,-7.30
2019-01-21T08:08:25.525Z,-7.10
2019-01-21T08:14:10.596Z,-6.90
2019-01-21T08:20:00.611Z,-6.70
2019-01-21T08:26:18.140Z,-6.40
2019-01-21T08:31:33.328Z,-6.10
2019-01-21T08:37:09.791Z,-5.90
2019-01-21T08:54:58.239Z,-5.00
2019-01-21T09:00:42.415Z,-4.60
2019-01-21T09:06:26.803Z,-4.30
2019-01-21T09:12:10.148Z,-4.00
2019-01-21T09:17:43.662Z,-3.70
2019-01-21T09:23:37.264Z,-3.30
2019-01-21T09:29:12.683Z,-3.00
2019-01-21T09:34:59.187Z,-2.80
2019-01-21T09:40:31.996Z,-2.40
2019-01-21T09:45:59.602Z,-2.10
2019-01-21T09:51:06.983Z,-1.70
2019-01-21T09:56:30.955Z,-1.50
2019-01-21T10:01:38.320Z,-1.20
2019-01-21T10:06:45.700Z,-0.90
2019-01-21T10:12:55.414Z,-0.70
2019-01-21T10:18:18.067Z,-0.50
2019-01-21T10:24:19.095Z,-0.20
2019-01-21T10:30:43.102Z,0.00
2019-01-21T10:36:35.915Z,0.20
2019-01-21T10:42:03.819Z,0.40
2019-01-21T10:47:32.937Z,0.60
2019-01-21T10:52:52.396Z,0.60
2019-01-21T10:58:26.471Z,0.80
2019-01-21T11:03:59.095Z,0.90
2019-01-21T11:09:29.811Z,1.10
2019-01-21T11:15:06.387Z,1.30
2019-01-21T11:21:13.387Z,1.40
2019-01-21T11:26:59.999Z,1.60
2019-01-21T11:32:37.973Z,1.60
2019-01-21T11:38:25.111Z,1.80
2019-01-21T11:44:04.302Z,1.90
2019-01-21T11:50:02.882Z,2.00
2019-01-21T11:55:50.608Z,2.10
2019-01-21T12:01:42.798Z,2.10
2019-01-21T12:07:09.873Z,2.20
2019-01-21T12:12:43.543Z,2.30
2019-01-21T12:18:51.998Z,2.40
2019-01-21T12:24:25.035Z,2.40
2019-01-21T12:30:26.491Z,2.50
2019-01-21T12:36:23.038Z,2.50
2019-01-21T12:42:15.328Z,2.60
2019-01-21T12:47:30.088Z,2.60
2019-01-21T12:53:32.536Z,2.60
2019-01-21T12:59:19.184Z,2.70
2019-01-21T13:05:14.910Z,2.60
2019-01-21T13:10:52.346Z,2.70
2019-01-21T13:16:53.963Z,2.70
2019-01-21T13:22:44.543Z,2.70
2019-01-21T13:35:10.815Z,2.60
2019-01-21T13:40:39.867Z,2.60
2019-01-21T13:46:32.687Z,2.60
2019-01-21T13:52:18.692Z,2.60
2019-01-21T13:58:35.485Z,2.60
2019-01-21T14:03:57.124Z,2.50
2019-01-21T14:09:49.085Z,2.40
2019-01-21T14:15:41.618Z,2.30
2019-01-21T14:28:08.138Z,2.10
2019-01-21T14:39:40.168Z,1.90
2019-01-21T14:57:37.286Z,1.60
2019-01-21T15:03:17.836Z,1.50
2019-01-21T15:08:55.933Z,1.40
2019-01-21T15:14:14.866Z,1.20
2019-01-21T15:20:04.121Z,1.00
2019-01-21T15:26:03.515Z,0.80
2019-01-21T15:32:00.194Z,0.50
2019-01-21T15:43:51.158Z,-0.10
2019-01-21T15:49:26.410Z,-0.50
2019-01-21T15:55:07.710Z,-0.70
2019-01-21T16:01:06.240Z,-1.00
2019-01-21T16:06:27.379Z,-1.30
2019-01-21T16:12:10.867Z,-1.60
2019-01-21T16:17:52.455Z,-1.80
2019-01-21T16:24:07.451Z,-2.10
2019-01-21T16:29:34.962Z,-2.40
2019-01-21T16:35:33.568Z,-2.60
2019-01-21T16:41:13.902Z,-2.80
2019-01-21T16:46:26.187Z,-3.00
2019-01-21T16:51:47.341Z,-3.10
2019-01-21T16:56:50.161Z,-3.10
2019-01-21T17:01:53.155Z,-3.20
2019-01-21T17:07:15.447Z,-3.30
2019-01-21T17:12:18.276Z,-2.80
2019-01-21T17:17:22.450Z,-3.00
2019-01-21T17:22:43.551Z,-3.30
2019-01-21T17:27:57.702Z,-3.50
2019-01-21T17:33:18.639Z,-3.80
2019-01-21T17:38:38.503Z,-3.90
2019-01-21T17:43:49.617Z,-4.10
2019-01-21T17:49:11.086Z,-4.30
2019-01-21T17:54:35.217Z,-4.30
2019-01-21T17:59:55.609Z,-4.50
2019-01-21T18:04:58.916Z,-4.50
2019-01-21T18:10:22.009Z,-4.70
2019-01-21T18:15:30.344Z,-4.80
2019-01-21T18:20:33.339Z,-4.90
2019-01-21T18:25:54.566Z,-5.00
2019-01-21T18:31:02.543Z,-4.80
2019-01-21T18:36:15.859Z,-4.90
2019-01-21T18:41:20.583Z,-5.10
2019-01-21T18:46:33.428Z,-5.20
2019-01-21T18:51:36.555Z,-5.20
2019-01-21T18:56:39.696Z,-5.30
2019-01-21T19:01:44.189Z,-5.40
2019-01-21T19:06:48.803Z,-5.50
2019-01-21T19:12:00.719Z,-5.60
2019-01-21T19:17:22.704Z,-5.60
2019-01-21T19:22:30.524Z,-5.70
2019-01-21T19:27:35.041Z,-5.70
2019-01-21T19:32:48.006Z,-5.70
2019-01-21T19:38:09.613Z,-5.80
2019-01-21T19:43:22.412Z,-5.90
2019-01-21T19:48:25.467Z,-5.90
2019-01-21T19:53:46.599Z,-6.10
2019-01-21T19:59:51.080Z,-6.20
2019-01-21T20:05:04.556Z,-6.30
2019-01-21T20:10:27.643Z,-6.30
2019-01-21T20:15:38.259Z,-6.40
2019-01-21T20:20:59.164Z,-6.40
2019-01-21T20:33:24.019Z,-6.60
2019-01-21T20:38:46.190Z,-6.60
2019-01-21T21:15:17.592Z,-7.20
2019-01-21T21:20:20.971Z,-7.10
2019-01-21T21:25:42.298Z,-7.20
2019-01-21T21:30:45.431Z,-7.20
2019-01-21T21:36:06.256Z,-7.30
2019-01-21T21:41:12.565Z,-7.30
2019-01-21T21:46:16.207Z,-7.30
2019-01-21T21:51:19.259Z,-7.30
2019-01-21T21:56:27.497Z,-7.40
2019-01-21T22:01:40.072Z,-7.50
2019-01-21T22:06:42.965Z,-7.50
2019-01-21T22:11:49.131Z,-7.40
2019-01-21T22:16:57.904Z,-7.50
2019-01-21T22:22:19.316Z,-7.50
2019-01-21T22:27:22.080Z,-7.50
2019-01-21T22:32:43.383Z,-7.70
2019-01-21T22:37:47.150Z,-7.70
2019-01-21T22:42:50.248Z,-7.70
2019-01-21T22:47:55.136Z,-7.70
2019-01-21T22:53:16.501Z,-7.80
2019-01-21T22:58:24.140Z,-7.80
2019-01-21T23:03:29.946Z,-7.80
2019-01-21T23:08:42.243Z,-7.90
2019-01-21T23:13:45.408Z,-7.90
2019-01-21T23:18:50.425Z,-7.90
2019-01-21T23:23:54.885Z,-8.00
2019-01-21T23:29:02.962Z,-8.10
2019-01-21T23:34:07.507Z,-8.20
2019-01-21T23:39:11.787Z,-8.20
2019-01-21T23:44:14.640Z,-8.20
2019-01-21T23:49:19.723Z,-8.20
2019-01-21T23:54:41.076Z,-8.30
2019-01-21T23:59:46.054Z,-8.30
